createdAt,value
2023-11-30T00:00:20.602Z,12.63
2023-11-30T00:02:47.539Z,12.63
2023-11-30T00:05:14.507Z,11.93
2023-11-30T00:07:41.412Z,12.10
2023-11-30T00:10:09.034Z,13.13
2023-11-30T00:12:35.913Z,12.20
2023-11-30T00:15:03.138Z,12.70
2023-11-30T00:17:31.159Z,13.83
2023-11-30T00:19:58.049Z,11.53
2023-11-30T00:22:24.862Z,13.70
2023-11-30T00:24:51.711Z,14.70
2023-11-30T00:27:18.671Z,14.23
2023-11-30T00:29:45.846Z,14.90
2023-11-30T00:32:12.685Z,14.57
2023-11-30T00:34:39.591Z,14.30
2023-11-30T00:37:06.481Z,14.20
2023-11-30T00:39:33.511Z,14.03
2023-11-30T00:42:01.369Z,14.57
2023-11-30T00:44:28.356Z,14.50
2023-11-30T00:46:56.870Z,14.87
2023-11-30T00:49:23.758Z,14.03
2023-11-30T00:51:50.691Z,13.47
2023-11-30T00:54:17.657Z,14.00
2023-11-30T00:56:44.773Z,12.53
2023-11-30T00:59:11.963Z,13.67
2023-11-30T01:01:38.868Z,13.60
2023-11-30T01:04:05.845Z,12.90
2023-11-30T01:06:32.766Z,11.80
2023-11-30T01:08:59.745Z,13.80
2023-11-30T01:11:26.741Z,13.33
2023-11-30T01:13:53.809Z,14.03
2023-11-30T01:16:20.742Z,12.53
2023-11-30T01:18:48.112Z,12.97
2023-11-30T01:21:15.057Z,12.80
2023-11-30T01:23:42.851Z,13.63
2023-11-30T01:26:09.746Z,12.97
2023-11-30T01:28:36.589Z,14.50
2023-11-30T01:31:03.999Z,12.83
2023-11-30T01:33:31.018Z,14.53
2023-11-30T01:35:57.995Z,13.07
2023-11-30T01:38:24.934Z,13.17
2023-11-30T01:40:51.797Z,13.20
2023-11-30T01:43:19.728Z,13.60
2023-11-30T01:45:46.914Z,12.40
2023-11-30T01:48:14.027Z,13.00
2023-11-30T01:50:41.118Z,12.63
2023-11-30T01:53:08.725Z,12.80
2023-11-30T01:55:36.615Z,13.03
2023-11-30T01:58:04.400Z,13.57
2023-11-30T02:00:31.878Z,13.77
2023-11-30T02:02:59.585Z,14.77
2023-11-30T02:05:26.481Z,13.83
2023-11-30T02:07:53.622Z,14.03
2023-11-30T02:10:21.331Z,13.17
2023-11-30T02:12:48.892Z,12.03
2023-11-30T02:15:16.566Z,13.60
2023-11-30T02:17:45.275Z,13.67
2023-11-30T02:20:12.458Z,14.73
2023-11-30T02:22:39.246Z,12.67
2023-11-30T02:25:06.763Z,13.43
2023-11-30T02:27:33.628Z,12.40
2023-11-30T02:30:00.640Z,13.27
2023-11-30T02:32:55.360Z,14.50
2023-11-30T02:35:25.825Z,12.67
2023-11-30T02:37:52.764Z,12.87
2023-11-30T02:40:20.340Z,14.50
2023-11-30T02:42:47.166Z,12.97
2023-11-30T02:45:14.153Z,13.47
2023-11-30T02:47:41.171Z,17.00
2023-11-30T02:50:08.616Z,18.93
2023-11-30T02:52:35.478Z,12.97
2023-11-30T02:55:02.451Z,13.93
2023-11-30T02:57:29.441Z,13.23
2023-11-30T02:59:56.656Z,13.20
2023-11-30T03:02:24.766Z,12.97
2023-11-30T03:04:52.581Z,14.10
2023-11-30T03:07:19.501Z,13.60
2023-11-30T03:09:46.290Z,13.10
2023-11-30T03:12:15.490Z,14.10
2023-11-30T03:14:45.861Z,12.73
2023-11-30T03:17:12.696Z,12.63
2023-11-30T03:19:40.086Z,13.03
2023-11-30T03:22:07.112Z,13.90
2023-11-30T03:24:34.053Z,12.13
2023-11-30T03:27:01.055Z,13.83
2023-11-30T03:29:27.892Z,13.40
2023-11-30T03:31:54.747Z,13.90
2023-11-30T03:34:21.953Z,12.60
2023-11-30T03:36:48.865Z,13.20
2023-11-30T03:39:15.938Z,12.07
2023-11-30T03:41:42.804Z,12.03
2023-11-30T03:44:09.905Z,12.73
2023-11-30T03:46:37.042Z,11.77
2023-11-30T03:49:04.046Z,13.30
2023-11-30T03:51:31.096Z,12.77
2023-11-30T03:53:57.994Z,12.73
2023-11-30T03:56:25.109Z,12.50
2023-11-30T03:58:52.042Z,11.90
2023-11-30T04:01:23.352Z,12.50
2023-11-30T04:03:50.350Z,11.47
2023-11-30T04:06:21.096Z,12.40
2023-11-30T04:08:48.064Z,12.23
2023-11-30T04:11:19.235Z,13.10
2023-11-30T04:13:46.619Z,12.90
2023-11-30T04:16:18.104Z,13.33
2023-11-30T04:18:45.368Z,13.10
2023-11-30T04:21:12.718Z,13.47
2023-11-30T04:23:39.579Z,13.40
2023-11-30T04:26:06.849Z,12.13
2023-11-30T04:28:34.838Z,13.03
2023-11-30T04:31:01.921Z,13.70
2023-11-30T04:33:28.877Z,15.40
2023-11-30T04:35:56.663Z,14.63
2023-11-30T04:38:23.552Z,12.80
2023-11-30T04:40:51.045Z,14.27
2023-11-30T04:43:17.951Z,13.73
2023-11-30T04:45:44.842Z,13.77
2023-11-30T04:48:11.825Z,12.90
2023-11-30T04:50:38.678Z,13.40
2023-11-30T04:53:05.607Z,13.53
2023-11-30T04:55:33.169Z,13.80
2023-11-30T04:58:00.273Z,13.73
2023-11-30T05:00:27.250Z,14.33
2023-11-30T05:02:56.419Z,14.37
2023-11-30T05:05:23.978Z,14.47
2023-11-30T05:07:50.751Z,13.53
2023-11-30T05:10:17.696Z,13.07
2023-11-30T05:12:44.869Z,13.77
2023-11-30T05:15:11.669Z,12.67
2023-11-30T05:17:38.605Z,14.23
2023-11-30T05:20:06.035Z,14.23
2023-11-30T05:22:32.846Z,12.67
2023-11-30T05:24:59.777Z,14.67
2023-11-30T05:27:26.634Z,13.93
2023-11-30T05:29:53.575Z,14.70
2023-11-30T05:32:20.369Z,15.53
2023-11-30T05:34:47.333Z,14.93
2023-11-30T05:37:14.144Z,15.53
2023-11-30T05:39:41.000Z,14.23
2023-11-30T05:42:08.592Z,13.97
2023-11-30T05:44:35.563Z,14.27
2023-11-30T05:47:02.323Z,13.03
2023-11-30T05:49:29.380Z,15.27
2023-11-30T05:51:57.650Z,14.83
2023-11-30T05:54:24.574Z,15.33
2023-11-30T05:56:51.448Z,15.10
2023-11-30T05:59:18.632Z,15.47
2023-11-30T06:01:45.484Z,15.27
2023-11-30T06:04:12.571Z,15.43
2023-11-30T06:06:39.473Z,15.63
2023-11-30T06:09:07.123Z,15.87
2023-11-30T06:11:34.105Z,15.80
2023-11-30T06:14:02.046Z,14.97
2023-11-30T06:16:29.072Z,15.27
2023-11-30T06:18:56.055Z,17.67
2023-11-30T06:21:22.954Z,14.90
2023-11-30T06:23:49.843Z,14.57
2023-11-30T06:26:16.728Z,15.57
2023-11-30T06:28:43.558Z,15.73
2023-11-30T06:31:13.154Z,14.27
2023-11-30T06:33:40.104Z,15.70
2023-11-30T06:36:07.235Z,15.67
2023-11-30T06:38:34.519Z,15.90
2023-11-30T06:41:01.712Z,15.27
2023-11-30T06:43:30.188Z,14.47
2023-11-30T06:45:57.026Z,17.50
2023-11-30T06:48:26.477Z,15.90
2023-11-30T06:50:53.420Z,15.23
2023-11-30T06:53:20.635Z,14.33
2023-11-30T06:55:47.573Z,14.63
2023-11-30T06:58:14.434Z,15.43
2023-11-30T07:00:41.298Z,16.90
2023-11-30T07:03:08.351Z,14.40
2023-11-30T07:05:35.181Z,15.93
2023-11-30T07:08:02.067Z,15.47
2023-11-30T07:10:29.332Z,16.47
2023-11-30T07:12:56.228Z,16.30
2023-11-30T07:15:23.738Z,16.90
2023-11-30T07:17:50.729Z,15.47
2023-11-30T07:20:17.582Z,16.30
2023-11-30T07:22:44.509Z,15.30
2023-11-30T07:25:11.456Z,16.03
2023-11-30T07:27:38.321Z,17.07
2023-11-30T07:30:08.488Z,16.07
2023-11-30T07:32:35.433Z,15.73
2023-11-30T07:35:02.315Z,15.77
2023-11-30T07:37:29.225Z,16.37
2023-11-30T07:39:56.037Z,16.37
2023-11-30T07:42:29.624Z,15.67
2023-11-30T07:45:03.773Z,16.10
2023-11-30T07:47:30.892Z,16.23
2023-11-30T07:49:57.812Z,15.57
2023-11-30T07:52:24.647Z,15.77
2023-11-30T07:54:51.500Z,18.10
2023-11-30T07:57:19.454Z,16.53
2023-11-30T07:59:46.942Z,16.77
2023-11-30T08:02:13.899Z,17.87
2023-11-30T08:04:42.091Z,17.23
2023-11-30T08:07:09.073Z,17.77
2023-11-30T08:09:36.080Z,17.60
2023-11-30T08:12:03.719Z,18.80
2023-11-30T08:14:30.645Z,16.57
2023-11-30T08:16:57.792Z,17.43
2023-11-30T08:19:24.625Z,18.80
2023-11-30T08:21:51.567Z,18.13
2023-11-30T08:24:18.516Z,18.93
2023-11-30T08:26:47.784Z,17.67
2023-11-30T08:29:16.815Z,17.87
2023-11-30T08:31:44.124Z,17.50
2023-11-30T08:34:11.186Z,17.43
2023-11-30T08:36:38.298Z,19.70
2023-11-30T08:39:05.241Z,18.03
2023-11-30T08:41:32.104Z,18.17
2023-11-30T08:43:59.106Z,17.73
2023-11-30T08:46:25.973Z,16.57
2023-11-30T08:48:52.904Z,17.57
2023-11-30T08:51:20.005Z,18.90
2023-11-30T08:53:46.902Z,18.10
2023-11-30T08:56:13.732Z,17.37
2023-11-30T08:58:40.708Z,19.17
2023-11-30T09:01:08.525Z,19.13
2023-11-30T09:03:35.495Z,18.00
2023-11-30T09:06:02.581Z,19.90
2023-11-30T09:08:29.564Z,17.70
2023-11-30T09:10:56.419Z,17.30
2023-11-30T09:13:23.367Z,18.07
2023-11-30T09:15:50.170Z,16.47
2023-11-30T09:18:18.410Z,17.63
2023-11-30T09:20:45.321Z,17.57
2023-11-30T09:23:12.221Z,16.23
2023-11-30T09:25:39.149Z,15.97
2023-11-30T09:28:06.219Z,16.10
2023-11-30T09:30:33.306Z,16.63
2023-11-30T09:33:00.525Z,17.50
2023-11-30T09:35:27.372Z,17.27
2023-11-30T09:37:55.552Z,17.00
2023-11-30T09:40:23.460Z,17.10
2023-11-30T09:42:50.286Z,16.87
2023-11-30T09:45:17.428Z,15.53
2023-11-30T09:47:44.454Z,16.10
2023-11-30T09:50:12.057Z,16.70
2023-11-30T09:52:38.975Z,15.90
2023-11-30T09:55:06.931Z,17.30
2023-11-30T09:57:33.813Z,16.23
2023-11-30T10:00:00.958Z,15.93
2023-11-30T10:02:29.374Z,15.53
2023-11-30T10:04:58.578Z,15.80
2023-11-30T10:07:25.411Z,16.47
2023-11-30T10:09:52.283Z,16.03
2023-11-30T10:12:21.370Z,17.73
2023-11-30T10:14:48.387Z,16.37
2023-11-30T10:17:15.466Z,17.53
2023-11-30T10:19:42.729Z,17.50
2023-11-30T10:22:09.669Z,17.13
2023-11-30T10:24:36.584Z,17.40
2023-11-30T10:27:05.158Z,16.70
2023-11-30T10:29:33.403Z,16.67
2023-11-30T10:32:04.361Z,18.63
2023-11-30T10:34:33.870Z,15.73
2023-11-30T10:37:04.085Z,17.17
2023-11-30T10:39:37.221Z,16.10
2023-11-30T10:42:14.394Z,14.87
2023-11-30T10:44:42.015Z,16.70
2023-11-30T10:47:10.621Z,15.37
2023-11-30T10:49:37.916Z,13.87
2023-11-30T10:52:05.465Z,15.17
2023-11-30T10:54:50.947Z,16.17
2023-11-30T10:57:20.109Z,14.83
2023-11-30T10:59:47.056Z,15.67
2023-11-30T11:02:16.061Z,15.47
2023-11-30T11:04:43.971Z,15.70
2023-11-30T11:07:13.606Z,16.70
2023-11-30T11:09:54.388Z,15.67
2023-11-30T11:12:22.759Z,13.87
2023-11-30T11:14:50.335Z,15.43
2023-11-30T11:17:20.703Z,14.47
2023-11-30T11:19:47.652Z,14.53
2023-11-30T11:22:18.453Z,14.53
2023-11-30T11:24:47.042Z,14.10
2023-11-30T11:27:27.073Z,14.67
2023-11-30T11:29:53.960Z,14.23
2023-11-30T11:32:24.112Z,13.27
2023-11-30T11:34:52.237Z,14.60
2023-11-30T11:37:19.704Z,14.60
2023-11-30T11:39:47.049Z,15.27
2023-11-30T11:42:14.088Z,15.07
2023-11-30T11:44:40.995Z,14.90
2023-11-30T11:47:07.988Z,15.13
2023-11-30T11:49:35.927Z,15.67
2023-11-30T11:52:02.805Z,15.27
2023-11-30T11:54:30.250Z,15.47
2023-11-30T11:56:58.978Z,15.63
2023-11-30T11:59:27.659Z,14.23
2023-11-30T12:01:55.515Z,19.47
2023-11-30T12:04:28.781Z,22.47
2023-11-30T12:06:55.865Z,15.30
2023-11-30T12:09:23.135Z,16.10
2023-11-30T12:11:50.148Z,23.73
2023-11-30T12:14:17.317Z,17.00
2023-11-30T12:16:44.256Z,15.00
2023-11-30T12:19:11.316Z,16.27
2023-11-30T12:21:38.632Z,14.63
2023-11-30T12:24:06.224Z,14.23
2023-11-30T12:26:33.094Z,15.63
2023-11-30T12:28:59.912Z,22.00
2023-11-30T12:31:27.153Z,22.27
2023-11-30T12:33:54.283Z,18.93
2023-11-30T12:36:21.505Z,21.00
2023-11-30T12:38:48.721Z,22.53
2023-11-30T12:41:16.145Z,18.07
2023-11-30T12:43:43.177Z,22.20
2023-11-30T12:46:10.709Z,16.77
2023-11-30T12:48:37.730Z,17.80
2023-11-30T12:51:05.872Z,15.83
2023-11-30T12:53:32.822Z,22.73
2023-11-30T12:55:59.614Z,20.80
2023-11-30T12:58:27.322Z,21.10
2023-11-30T13:00:54.468Z,18.77
2023-11-30T13:03:21.956Z,16.37
2023-11-30T13:05:49.616Z,15.63
2023-11-30T13:08:16.498Z,14.50
2023-11-30T13:10:43.453Z,16.30
2023-11-30T13:13:10.398Z,14.97
2023-11-30T13:15:38.106Z,14.03
2023-11-30T13:18:05.315Z,14.43
2023-11-30T13:20:32.720Z,14.27
2023-11-30T13:22:59.776Z,12.30
2023-11-30T13:25:28.078Z,17.20
2023-11-30T13:27:55.182Z,14.17
2023-11-30T13:30:22.018Z,13.30
2023-11-30T13:32:49.091Z,13.10
2023-11-30T13:35:16.118Z,14.83
2023-11-30T13:37:43.508Z,17.10
2023-11-30T13:40:11.412Z,15.33
2023-11-30T13:42:38.488Z,16.53
2023-11-30T13:45:06.782Z,15.73
2023-11-30T13:47:33.761Z,18.33
2023-11-30T13:50:01.313Z,17.50
2023-11-30T13:52:28.783Z,27.67
2023-11-30T13:54:55.878Z,34.77
2023-11-30T13:57:23.116Z,43.57
2023-11-30T13:59:49.948Z,28.17
2023-11-30T14:02:16.858Z,22.83
2023-11-30T14:04:43.857Z,18.20
2023-11-30T14:07:10.759Z,18.37
2023-11-30T14:09:37.786Z,22.63
2023-11-30T14:12:05.335Z,23.40
2023-11-30T14:14:32.250Z,19.60
2023-11-30T14:16:59.379Z,22.03
2023-11-30T14:19:26.294Z,23.53
2023-11-30T14:21:54.059Z,24.57
2023-11-30T14:24:20.952Z,26.53
2023-11-30T14:26:47.875Z,28.17
2023-11-30T14:29:15.278Z,23.93
2023-11-30T14:31:42.167Z,20.90
2023-11-30T14:34:09.159Z,23.10
2023-11-30T14:36:36.140Z,24.30
2023-11-30T14:39:02.995Z,23.27
2023-11-30T14:41:30.786Z,23.03
2023-11-30T14:43:57.976Z,22.40
2023-11-30T14:46:24.929Z,21.87
2023-11-30T14:48:51.944Z,21.80
2023-11-30T14:51:18.791Z,21.07
2023-11-30T14:53:45.858Z,29.10
2023-11-30T14:56:13.066Z,22.73
2023-11-30T14:58:40.101Z,22.37
2023-11-30T15:01:11.870Z,27.47
2023-11-30T15:03:39.595Z,27.77
2023-11-30T15:06:07.757Z,27.10
2023-11-30T15:08:36.335Z,20.03
2023-11-30T15:11:03.744Z,17.40
2023-11-30T15:13:30.671Z,16.03
2023-11-30T15:15:57.577Z,18.97
2023-11-30T15:18:25.062Z,18.27
2023-11-30T15:20:51.917Z,18.67
2023-11-30T15:23:18.760Z,19.13
2023-11-30T15:25:45.769Z,17.17
2023-11-30T15:28:13.125Z,17.27
2023-11-30T15:30:40.018Z,18.07
2023-11-30T15:33:08.422Z,18.70
2023-11-30T15:35:36.692Z,18.03
2023-11-30T15:38:04.192Z,15.33
2023-11-30T15:40:31.249Z,19.00
2023-11-30T15:42:58.144Z,18.63
2023-11-30T15:45:25.159Z,18.70
2023-11-30T15:47:52.300Z,20.40
2023-11-30T15:50:19.453Z,18.57
2023-11-30T15:52:46.327Z,19.07
2023-11-30T15:55:14.452Z,20.87
2023-11-30T15:57:42.025Z,18.63
2023-11-30T16:00:09.801Z,17.93
2023-11-30T16:02:40.502Z,18.57
2023-11-30T16:05:07.695Z,18.13
2023-11-30T16:07:36.194Z,16.77
2023-11-30T16:10:04.946Z,17.40
2023-11-30T16:12:31.865Z,22.90
2023-11-30T16:14:58.797Z,22.27
2023-11-30T16:17:25.651Z,24.67
2023-11-30T16:19:53.314Z,23.53
2023-11-30T16:22:20.189Z,24.07
2023-11-30T16:24:48.214Z,25.37
2023-11-30T16:27:15.920Z,23.20
2023-11-30T16:29:43.082Z,29.03
2023-11-30T16:32:11.955Z,29.53
2023-11-30T16:34:38.884Z,29.13
2023-11-30T16:37:06.508Z,25.40
2023-11-30T16:39:33.453Z,24.50
2023-11-30T16:42:00.353Z,30.93
2023-11-30T16:44:28.010Z,29.90
2023-11-30T16:46:55.714Z,29.60
2023-11-30T16:49:22.580Z,29.60
2023-11-30T16:51:55.324Z,30.73
2023-11-30T16:54:24.642Z,35.00
2023-11-30T16:56:51.607Z,28.10
2023-11-30T16:59:18.615Z,25.50
2023-11-30T17:01:45.525Z,24.87
2023-11-30T17:04:12.626Z,29.47
2023-11-30T17:06:39.885Z,26.10
2023-11-30T17:09:06.930Z,30.23
2023-11-30T17:11:33.808Z,36.27
2023-11-30T17:14:00.650Z,42.30
2023-11-30T17:16:27.616Z,41.77
2023-11-30T17:18:54.889Z,40.93
2023-11-30T17:21:22.729Z,45.10
2023-11-30T17:23:49.673Z,42.47
2023-11-30T17:26:16.616Z,37.00
2023-11-30T17:28:44.719Z,39.33
2023-11-30T17:31:11.652Z,35.33
2023-11-30T17:33:38.941Z,39.93
2023-11-30T17:36:06.085Z,40.20
2023-11-30T17:38:33.040Z,68.50
2023-11-30T17:40:59.878Z,95.90
2023-11-30T17:43:26.805Z,66.30
2023-11-30T17:45:53.916Z,74.53
2023-11-30T17:48:20.825Z,41.30
2023-11-30T17:50:47.617Z,43.97
2023-11-30T17:53:14.533Z,35.83
2023-11-30T17:55:41.387Z,34.10
2023-11-30T17:58:08.577Z,32.67
2023-11-30T18:00:35.554Z,29.87
2023-11-30T18:03:02.432Z,26.20
2023-11-30T18:05:29.624Z,31.23
2023-11-30T18:07:56.458Z,30.77
2023-11-30T18:10:23.277Z,28.47
2023-11-30T18:12:50.299Z,31.27
2023-11-30T18:15:17.108Z,42.67
2023-11-30T18:17:44.054Z,45.37
2023-11-30T18:20:12.353Z,46.90
2023-11-30T18:22:39.365Z,44.80
2023-11-30T18:25:06.597Z,43.90
2023-11-30T18:27:33.504Z,35.20
2023-11-30T18:30:00.341Z,32.43
2023-11-30T18:32:27.520Z,42.80
2023-11-30T18:34:55.871Z,42.77
2023-11-30T18:37:22.729Z,29.90
2023-11-30T18:39:49.719Z,29.93
2023-11-30T18:42:16.667Z,28.87
2023-11-30T18:44:43.481Z,27.93
2023-11-30T18:47:15.779Z,34.87
2023-11-30T18:49:42.779Z,42.80
2023-11-30T18:52:09.711Z,49.53
2023-11-30T18:54:36.839Z,52.53
2023-11-30T18:57:03.968Z,52.57
2023-11-30T18:59:32.194Z,45.13
2023-11-30T19:01:59.484Z,39.80
2023-11-30T19:04:26.466Z,38.77
2023-11-30T19:06:53.379Z,39.40
2023-11-30T19:09:20.329Z,50.10
2023-11-30T19:11:47.382Z,50.40
2023-11-30T19:14:14.312Z,43.80
2023-11-30T19:16:41.833Z,42.33
2023-11-30T19:19:09.683Z,43.63
2023-11-30T19:21:40.871Z,40.13
2023-11-30T19:24:07.876Z,33.07
2023-11-30T19:26:34.675Z,34.93
2023-11-30T19:29:01.691Z,39.40
2023-11-30T19:31:28.525Z,38.17
2023-11-30T19:33:55.526Z,36.80
2023-11-30T19:36:22.888Z,34.60
2023-11-30T19:38:49.796Z,38.33
2023-11-30T19:41:16.591Z,39.37
2023-11-30T19:43:43.502Z,39.47
2023-11-30T19:46:14.837Z,41.50
2023-11-30T19:48:41.888Z,44.77
2023-11-30T19:51:08.756Z,46.77
2023-11-30T19:53:35.655Z,50.57
2023-11-30T19:56:02.471Z,50.77
2023-11-30T19:58:29.310Z,55.10
2023-11-30T20:00:56.260Z,59.03
2023-11-30T20:03:23.189Z,64.00
2023-11-30T20:05:50.132Z,68.67
2023-11-30T20:08:17.033Z,98.40
2023-11-30T20:10:44.549Z,80.17
2023-11-30T20:13:11.470Z,46.20
2023-11-30T20:15:38.425Z,44.93
2023-11-30T20:18:07.109Z,50.00
2023-11-30T20:20:34.133Z,56.17
2023-11-30T20:23:01.708Z,54.70
2023-11-30T20:25:28.627Z,56.00
2023-11-30T20:27:55.527Z,55.77
2023-11-30T20:30:22.399Z,48.17
2023-11-30T20:32:49.831Z,56.57
2023-11-30T20:35:16.658Z,57.20
2023-11-30T20:37:43.490Z,55.07
2023-11-30T20:40:11.420Z,54.87
2023-11-30T20:42:38.417Z,55.17
2023-11-30T20:45:05.487Z,57.13
2023-11-30T20:47:32.432Z,58.27
2023-11-30T20:50:00.007Z,56.50
2023-11-30T20:52:26.959Z,58.77
2023-11-30T20:54:53.782Z,55.93
2023-11-30T20:57:20.610Z,59.87
2023-11-30T20:59:47.483Z,58.63
2023-11-30T21:13:20.742Z,57.77
2023-11-30T21:15:47.856Z,59.53
2023-11-30T21:18:15.080Z,56.07
2023-11-30T21:20:42.098Z,59.47
2023-11-30T21:23:09.347Z,60.63
2023-11-30T21:25:36.459Z,57.47
2023-11-30T21:28:03.584Z,61.27
2023-11-30T21:30:30.719Z,66.80
2023-11-30T21:32:58.697Z,67.83
2023-11-30T21:35:25.714Z,74.33
2023-11-30T21:37:52.790Z,73.80
2023-11-30T21:40:19.857Z,84.73
2023-11-30T21:42:47.412Z,84.00
2023-11-30T21:45:14.584Z,83.57
2023-11-30T21:47:41.668Z,66.50
2023-11-30T21:50:16.705Z,74.33
2023-11-30T21:52:45.632Z,81.17
2023-11-30T21:55:12.663Z,70.63
2023-11-30T21:57:41.253Z,78.30
2023-11-30T22:00:10.832Z,91.40
2023-11-30T22:02:37.924Z,90.37
2023-11-30T22:05:05.720Z,87.50
2023-11-30T22:07:33.599Z,88.73
2023-11-30T22:10:00.841Z,82.80
2023-11-30T22:12:27.878Z,78.90
2023-11-30T22:14:55.087Z,62.00
2023-11-30T22:17:22.215Z,67.00
2023-11-30T22:19:49.555Z,64.37
2023-11-30T22:22:16.597Z,54.13
2023-11-30T22:24:43.680Z,66.30
2023-11-30T22:27:10.776Z,53.57
2023-11-30T22:29:38.148Z,57.03
2023-11-30T22:32:05.383Z,60.53
2023-11-30T22:34:32.507Z,62.27
2023-11-30T22:36:59.837Z,59.33
2023-11-30T22:39:26.895Z,60.13
2023-11-30T22:41:54.101Z,62.47
2023-11-30T22:44:22.471Z,66.23
2023-11-30T22:46:49.674Z,60.07
2023-11-30T22:49:17.866Z,68.57
2023-11-30T22:51:45.111Z,58.90
2023-11-30T22:54:12.324Z,62.17
2023-11-30T22:56:39.426Z,58.07
2023-11-30T22:59:07.618Z,50.47
2023-11-30T23:01:35.337Z,53.10
2023-11-30T23:04:02.824Z,55.13
2023-11-30T23:06:30.296Z,56.20
2023-11-30T23:08:57.569Z,58.40
2023-11-30T23:11:25.764Z,60.27
2023-11-30T23:13:53.462Z,57.17
2023-11-30T23:16:22.290Z,57.43
2023-11-30T23:18:49.498Z,58.77
2023-11-30T23:21:16.606Z,60.67
2023-11-30T23:23:43.705Z,64.83
2023-11-30T23:26:10.820Z,67.10
2023-11-30T23:28:37.932Z,61.93
2023-11-30T23:31:05.179Z,58.33
2023-11-30T23:33:32.317Z,61.23
2023-11-30T23:35:59.388Z,61.97
2023-11-30T23:38:26.541Z,59.30
2023-11-30T23:40:53.626Z,56.83
2023-11-30T23:43:20.770Z,59.70
2023-11-30T23:45:47.900Z,59.17
2023-11-30T23:48:15.143Z,55.83
2023-11-30T23:50:42.327Z,59.73
2023-11-30T23:53:09.717Z,58.80
2023-11-30T23:55:37.185Z,54.83
2023-11-30T23:58:04.322Z,54.07
